sensor_id;sensor_type;location;lat;lon;timestamp;temperature;humidity
18454;DHT22;9356;52.202;20.950;2023-05-28T00:00:40;13.70;54.80
18454;DHT22;9356;52.202;20.950;2023-05-28T00:01:47;13.60;55.10
18454;DHT22;9356;52.202;20.950;2023-05-28T00:02:55;13.60;55.10
18454;DHT22;9356;52.202;20.950;2023-05-28T00:04:03;13.60;54.90
18454;DHT22;9356;52.202;20.950;2023-05-28T00:05:10;13.60;54.90
18454;DHT22;9356;52.202;20.950;2023-05-28T00:06:15;13.60;54.60
18454;DHT22;9356;52.202;20.950;2023-05-28T00:07:19;13.50;54.60
18454;DHT22;9356;52.202;20.950;2023-05-28T00:08:24;13.50;54.90
18454;DHT22;9356;52.202;20.950;2023-05-28T00:09:31;13.50;55.00
18454;DHT22;9356;52.202;20.950;2023-05-28T00:10:35;13.50;55.00
18454;DHT22;9356;52.202;20.950;2023-05-28T00:11:40;13.50;56.40
18454;DHT22;9356;52.202;20.950;2023-05-28T00:12:45;13.60;55.90
18454;DHT22;9356;52.202;20.950;2023-05-28T00:13:48;13.60;55.20
18454;DHT22;9356;52.202;20.950;2023-05-28T00:14:53;13.60;55.30
18454;DHT22;9356;52.202;20.950;2023-05-28T00:15:58;13.60;54.70
18454;DHT22;9356;52.202;20.950;2023-05-28T00:17:02;14.60;55.20
18454;DHT22;9356;52.202;20.950;2023-05-28T00:18:06;13.60;54.70
18454;DHT22;9356;52.202;20.950;2023-05-28T00:19:15;13.50;56.20
18454;DHT22;9356;52.202;20.950;2023-05-28T00:20:24;13.70;55.00
18454;DHT22;9356;52.202;20.950;2023-05-28T00:21:31;13.60;55.40
18454;DHT22;9356;52.202;20.950;2023-05-28T00:22:36;13.60;54.90
18454;DHT22;9356;52.202;20.950;2023-05-28T00:23:43;13.70;55.30
18454;DHT22;9356;52.202;20.950;2023-05-28T00:24:48;13.60;55.10
18454;DHT22;9356;52.202;20.950;2023-05-28T00:26:04;13.60;54.70
18454;DHT22;9356;52.202;20.950;2023-05-28T00:27:07;13.50;54.80
18454;DHT22;9356;52.202;20.950;2023-05-28T00:28:13;13.50;55.00
18454;DHT22;9356;52.202;20.950;2023-05-28T00:29:17;13.60;55.20
18454;DHT22;9356;52.202;20.950;2023-05-28T00:30:21;13.60;55.10
18454;DHT22;9356;52.202;20.950;2023-05-28T00:31:28;13.60;54.30
18454;DHT22;9356;52.202;20.950;2023-05-28T00:32:32;13.50;54.40
18454;DHT22;9356;52.202;20.950;2023-05-28T00:33:36;13.50;54.50
18454;DHT22;9356;52.202;20.950;2023-05-28T00:34:42;13.50;54.30
18454;DHT22;9356;52.202;20.950;2023-05-28T00:35:49;13.40;54.60
18454;DHT22;9356;52.202;20.950;2023-05-28T00:36:59;13.40;55.30
18454;DHT22;9356;52.202;20.950;2023-05-28T00:38:04;13.40;54.60
18454;DHT22;9356;52.202;20.950;2023-05-28T00:39:08;13.40;54.70
18454;DHT22;9356;52.202;20.950;2023-05-28T00:40:13;13.30;54.60
18454;DHT22;9356;52.202;20.950;2023-05-28T00:41:24;13.30;55.00
18454;DHT22;9356;52.202;20.950;2023-05-28T00:42:31;13.20;54.80
18454;DHT22;9356;52.202;20.950;2023-05-28T00:43:36;13.20;55.20
18454;DHT22;9356;52.202;20.950;2023-05-28T00:44:42;13.20;55.20
18454;DHT22;9356;52.202;20.950;2023-05-28T00:45:47;13.20;55.00
18454;DHT22;9356;52.202;20.950;2023-05-28T00:46:56;13.30;55.20
18454;DHT22;9356;52.202;20.950;2023-05-28T00:48:00;13.30;54.90
18454;DHT22;9356;52.202;20.950;2023-05-28T00:49:10;13.30;54.80
18454;DHT22;9356;52.202;20.950;2023-05-28T00:50:14;13.30;54.90
18454;DHT22;9356;52.202;20.950;2023-05-28T00:51:21;13.40;54.90
18454;DHT22;9356;52.202;20.950;2023-05-28T00:52:26;13.40;54.60
18454;DHT22;9356;52.202;20.950;2023-05-28T00:53:32;13.40;54.30
18454;DHT22;9356;52.202;20.950;2023-05-28T00:54:38;13.40;54.30
18454;DHT22;9356;52.202;20.950;2023-05-28T00:55:45;13.30;54.30
18454;DHT22;9356;52.202;20.950;2023-05-28T00:56:52;13.20;54.30
18454;DHT22;9356;52.202;20.950;2023-05-28T00:57:56;13.20;54.60
18454;DHT22;9356;52.202;20.950;2023-05-28T00:59:08;13.10;54.70
18454;DHT22;9356;52.202;20.950;2023-05-28T01:00:16;13.10;55.30
18454;DHT22;9356;52.202;20.950;2023-05-28T01:01:26;13.00;55.00
18454;DHT22;9356;52.202;20.950;2023-05-28T01:02:36;13.10;55.10
18454;DHT22;9356;52.202;20.950;2023-05-28T01:03:43;13.10;55.80
18454;DHT22;9356;52.202;20.950;2023-05-28T01:04:48;13.10;55.00
18454;DHT22;9356;52.202;20.950;2023-05-28T01:05:54;13.10;54.90
18454;DHT22;9356;52.202;20.950;2023-05-28T01:07:01;13.00;54.80
18454;DHT22;9356;52.202;20.950;2023-05-28T01:08:06;13.00;55.70
18454;DHT22;9356;52.202;20.950;2023-05-28T01:09:15;13.00;55.90
18454;DHT22;9356;52.202;20.950;2023-05-28T01:10:22;13.00;55.20
18454;DHT22;9356;52.202;20.950;2023-05-28T01:11:28;13.00;55.20
18454;DHT22;9356;52.202;20.950;2023-05-28T01:12:31;12.90;55.20
18454;DHT22;9356;52.202;20.950;2023-05-28T01:13:38;13.00;55.40
18454;DHT22;9356;52.202;20.950;2023-05-28T01:14:44;13.00;55.10
18454;DHT22;9356;52.202;20.950;2023-05-28T01:15:51;13.00;55.40
18454;DHT22;9356;52.202;20.950;2023-05-28T01:16:55;13.00;54.90
18454;DHT22;9356;52.202;20.950;2023-05-28T01:18:03;12.90;55.00
18454;DHT22;9356;52.202;20.950;2023-05-28T01:19:12;13.00;56.40
18454;DHT22;9356;52.202;20.950;2023-05-28T01:20:20;12.90;55.20
18454;DHT22;9356;52.202;20.950;2023-05-28T01:21:26;12.90;55.20
18454;DHT22;9356;52.202;20.950;2023-05-28T01:22:38;12.90;55.20
18454;DHT22;9356;52.202;20.950;2023-05-28T01:23:47;12.90;55.20
18454;DHT22;9356;52.202;20.950;2023-05-28T01:24:54;12.80;55.40
18454;DHT22;9356;52.202;20.950;2023-05-28T01:25:58;15.30;56.40
18454;DHT22;9356;52.202;20.950;2023-05-28T01:27:04;12.80;55.80
18454;DHT22;9356;52.202;20.950;2023-05-28T01:28:13;12.80;55.60
18454;DHT22;9356;52.202;20.950;2023-05-28T01:29:19;12.90;55.50
18454;DHT22;9356;52.202;20.950;2023-05-28T01:30:23;12.90;55.50
18454;DHT22;9356;52.202;20.950;2023-05-28T01:31:31;13.00;55.70
18454;DHT22;9356;52.202;20.950;2023-05-28T01:32:36;13.00;55.80
18454;DHT22;9356;52.202;20.950;2023-05-28T01:33:43;13.10;55.60
18454;DHT22;9356;52.202;20.950;2023-05-28T01:34:47;13.00;55.00
18454;DHT22;9356;52.202;20.950;2023-05-28T01:35:56;13.10;55.10
18454;DHT22;9356;52.202;20.950;2023-05-28T01:37:06;13.10;55.40
18454;DHT22;9356;52.202;20.950;2023-05-28T01:38:15;13.10;55.20
18454;DHT22;9356;52.202;20.950;2023-05-28T01:39:39;13.10;55.30
18454;DHT22;9356;52.202;20.950;2023-05-28T01:40:47;13.10;55.30
18454;DHT22;9356;52.202;20.950;2023-05-28T01:41:52;13.00;54.90
18454;DHT22;9356;52.202;20.950;2023-05-28T01:42:58;13.00;55.60
18454;DHT22;9356;52.202;20.950;2023-05-28T01:44:04;12.90;55.40
18454;DHT22;9356;52.202;20.950;2023-05-28T01:45:12;12.90;55.40
18454;DHT22;9356;52.202;20.950;2023-05-28T01:46:18;12.90;55.50
18454;DHT22;9356;52.202;20.950;2023-05-28T01:47:26;13.10;55.60
18454;DHT22;9356;52.202;20.950;2023-05-28T01:48:33;12.90;57.10
18454;DHT22;9356;52.202;20.950;2023-05-28T01:49:40;12.90;55.80
18454;DHT22;9356;52.202;20.950;2023-05-28T01:50:46;12.90;55.80
18454;DHT22;9356;52.202;20.950;2023-05-28T01:51:53;12.80;55.50
18454;DHT22;9356;52.202;20.950;2023-05-28T01:52:59;9.90;54.40
18454;DHT22;9356;52.202;20.950;2023-05-28T01:54:03;12.80;55.70
18454;DHT22;9356;52.202;20.950;2023-05-28T01:55:10;12.80;55.90
18454;DHT22;9356;52.202;20.950;2023-05-28T01:56:19;12.80;56.40
18454;DHT22;9356;52.202;20.950;2023-05-28T01:57:23;12.80;56.00
18454;DHT22;9356;52.202;20.950;2023-05-28T01:58:27;12.80;56.00
18454;DHT22;9356;52.202;20.950;2023-05-28T01:59:32;12.90;56.30
18454;DHT22;9356;52.202;20.950;2023-05-28T02:00:46;12.90;55.80
18454;DHT22;9356;52.202;20.950;2023-05-28T02:01:54;12.90;55.80
18454;DHT22;9356;52.202;20.950;2023-05-28T02:02:59;12.90;56.40
18454;DHT22;9356;52.202;20.950;2023-05-28T02:04:04;12.90;55.90
18454;DHT22;9356;52.202;20.950;2023-05-28T02:05:11;12.90;55.90
18454;DHT22;9356;52.202;20.950;2023-05-28T02:06:16;12.90;55.50
18454;DHT22;9356;52.202;20.950;2023-05-28T02:07:22;12.80;55.70
18454;DHT22;9356;52.202;20.950;2023-05-28T02:08:27;12.80;56.20
18454;DHT22;9356;52.202;20.950;2023-05-28T02:09:31;12.80;55.90
18454;DHT22;9356;52.202;20.950;2023-05-28T02:10:38;12.70;55.80
18454;DHT22;9356;52.202;20.950;2023-05-28T02:11:43;12.60;56.00
18454;DHT22;9356;52.202;20.950;2023-05-28T02:12:48;12.60;56.20
18454;DHT22;9356;52.202;20.950;2023-05-28T02:13:51;12.60;57.10
18454;DHT22;9356;52.202;20.950;2023-05-28T02:14:57;12.60;57.70
18454;DHT22;9356;52.202;20.950;2023-05-28T02:16:00;12.70;57.20
18454;DHT22;9356;52.202;20.950;2023-05-28T02:17:06;12.80;56.20
18454;DHT22;9356;52.202;20.950;2023-05-28T02:18:09;12.80;56.70
18454;DHT22;9356;52.202;20.950;2023-05-28T02:19:16;12.80;56.00
18454;DHT22;9356;52.202;20.950;2023-05-28T02:20:20;12.90;56.00
18454;DHT22;9356;52.202;20.950;2023-05-28T02:21:26;12.90;56.00
18454;DHT22;9356;52.202;20.950;2023-05-28T02:22:32;12.90;56.00
18454;DHT22;9356;52.202;20.950;2023-05-28T02:23:40;12.90;56.00
18454;DHT22;9356;52.202;20.950;2023-05-28T02:24:44;12.90;56.20
18454;DHT22;9356;52.202;20.950;2023-05-28T02:25:52;13.00;56.10
18454;DHT22;9356;52.202;20.950;2023-05-28T02:26:56;13.00;55.90
18454;DHT22;9356;52.202;20.950;2023-05-28T02:28:01;13.00;55.80
18454;DHT22;9356;52.202;20.950;2023-05-28T02:29:06;13.00;55.80
18454;DHT22;9356;52.202;20.950;2023-05-28T02:30:16;13.00;56.00
18454;DHT22;9356;52.202;20.950;2023-05-28T02:31:26;13.00;55.80
18454;DHT22;9356;52.202;20.950;2023-05-28T02:32:35;13.00;55.90
18454;DHT22;9356;52.202;20.950;2023-05-28T02:33:40;13.00;56.00
18454;DHT22;9356;52.202;20.950;2023-05-28T02:34:46;13.00;56.00
18454;DHT22;9356;52.202;20.950;2023-05-28T02:35:51;12.60;56.10
18454;DHT22;9356;52.202;20.950;2023-05-28T02:36:57;13.00;56.70
18454;DHT22;9356;52.202;20.950;2023-05-28T02:38:04;13.00;56.40
18454;DHT22;9356;52.202;20.950;2023-05-28T02:39:09;13.00;56.90
18454;DHT22;9356;52.202;20.950;2023-05-28T02:40:14;13.00;56.30
18454;DHT22;9356;52.202;20.950;2023-05-28T02:41:20;13.00;56.00
18454;DHT22;9356;52.202;20.950;2023-05-28T02:42:24;12.90;56.00
18454;DHT22;9356;52.202;20.950;2023-05-28T02:43:30;13.00;56.30
18454;DHT22;9356;52.202;20.950;2023-05-28T02:44:37;13.10;56.30
18454;DHT22;9356;52.202;20.950;2023-05-28T02:45:42;13.10;56.10
18454;DHT22;9356;52.202;20.950;2023-05-28T02:46:48;13.10;56.60
18454;DHT22;9356;52.202;20.950;2023-05-28T02:47:53;13.10;56.20
18454;DHT22;9356;52.202;20.950;2023-05-28T02:48:57;13.10;55.80
18454;DHT22;9356;52.202;20.950;2023-05-28T02:50:05;13.10;56.10
18454;DHT22;9356;52.202;20.950;2023-05-28T02:51:37;13.00;56.00
18454;DHT22;9356;52.202;20.950;2023-05-28T02:52:49;12.90;56.70
18454;DHT22;9356;52.202;20.950;2023-05-28T02:53:53;13.00;57.10
18454;DHT22;9356;52.202;20.950;2023-05-28T02:55:01;12.90;56.70
18454;DHT22;9356;52.202;20.950;2023-05-28T02:56:08;13.00;56.40
18454;DHT22;9356;52.202;20.950;2023-05-28T02:57:20;13.10;56.40
18454;DHT22;9356;52.202;20.950;2023-05-28T02:58:25;13.00;56.00
18454;DHT22;9356;52.202;20.950;2023-05-28T02:59:32;13.00;55.90
18454;DHT22;9356;52.202;20.950;2023-05-28T03:00:40;12.90;56.50
18454;DHT22;9356;52.202;20.950;2023-05-28T03:01:45;12.90;56.50
18454;DHT22;9356;52.202;20.950;2023-05-28T03:02:50;12.90;56.20
18454;DHT22;9356;52.202;20.950;2023-05-28T03:03:54;13.00;56.30
18454;DHT22;9356;52.202;20.950;2023-05-28T03:05:00;13.00;56.00
18454;DHT22;9356;52.202;20.950;2023-05-28T03:06:08;13.00;56.10
18454;DHT22;9356;52.202;20.950;2023-05-28T03:07:21;11.80;55.40
18454;DHT22;9356;52.202;20.950;2023-05-28T03:08:26;13.20;55.90
18454;DHT22;9356;52.202;20.950;2023-05-28T03:09:30;13.30;56.40
18454;DHT22;9356;52.202;20.950;2023-05-28T03:10:35;13.40;55.80
18454;DHT22;9356;52.202;20.950;2023-05-28T03:11:39;13.50;55.30
18454;DHT22;9356;52.202;20.950;2023-05-28T03:12:46;13.60;55.60
18454;DHT22;9356;52.202;20.950;2023-05-28T03:13:50;13.70;55.40
18454;DHT22;9356;52.202;20.950;2023-05-28T03:14:54;13.90;55.30
18454;DHT22;9356;52.202;20.950;2023-05-28T03:15:58;14.00;55.10
18454;DHT22;9356;52.202;20.950;2023-05-28T03:17:08;14.20;55.10
18454;DHT22;9356;52.202;20.950;2023-05-28T03:18:13;14.30;54.80
18454;DHT22;9356;52.202;20.950;2023-05-28T03:19:17;12.20;53.60
18454;DHT22;9356;52.202;20.950;2023-05-28T03:20:21;14.60;54.20
18454;DHT22;9356;52.202;20.950;2023-05-28T03:21:26;14.70;54.10
18454;DHT22;9356;52.202;20.950;2023-05-28T03:22:31;14.90;54.00
18454;DHT22;9356;52.202;20.950;2023-05-28T03:23:36;14.90;53.60
18454;DHT22;9356;52.202;20.950;2023-05-28T03:24:57;15.00;53.70
18454;DHT22;9356;52.202;20.950;2023-05-28T03:26:05;15.10;53.40
18454;DHT22;9356;52.202;20.950;2023-05-28T03:27:10;15.20;53.40
18454;DHT22;9356;52.202;20.950;2023-05-28T03:28:17;15.20;53.20
18454;DHT22;9356;52.202;20.950;2023-05-28T03:29:41;15.20;53.00
18454;DHT22;9356;52.202;20.950;2023-05-28T03:30:56;15.30;52.80
18454;DHT22;9356;52.202;20.950;2023-05-28T03:32:01;15.40;52.70
18454;DHT22;9356;52.202;20.950;2023-05-28T03:33:06;15.40;52.70
18454;DHT22;9356;52.202;20.950;2023-05-28T03:34:13;15.50;52.80
18454;DHT22;9356;52.202;20.950;2023-05-28T03:35:18;15.60;52.60
18454;DHT22;9356;52.202;20.950;2023-05-28T03:36:22;15.60;52.60
18454;DHT22;9356;52.202;20.950;2023-05-28T03:37:28;15.70;52.40
18454;DHT22;9356;52.202;20.950;2023-05-28T03:38:33;15.80;52.00
18454;DHT22;9356;52.202;20.950;2023-05-28T03:39:38;15.90;51.70
18454;DHT22;9356;52.202;20.950;2023-05-28T03:40:44;16.00;51.50
18454;DHT22;9356;52.202;20.950;2023-05-28T03:41:49;16.00;51.50
18454;DHT22;9356;52.202;20.950;2023-05-28T03:42:53;16.00;51.60
18454;DHT22;9356;52.202;20.950;2023-05-28T03:44:01;16.00;51.50
18454;DHT22;9356;52.202;20.950;2023-05-28T03:45:07;16.00;51.40
18454;DHT22;9356;52.202;20.950;2023-05-28T03:46:13;16.00;52.30
18454;DHT22;9356;52.202;20.950;2023-05-28T03:47:17;15.90;51.50
18454;DHT22;9356;52.202;20.950;2023-05-28T03:48:22;15.90;51.50
18454;DHT22;9356;52.202;20.950;2023-05-28T03:49:26;15.90;51.60
18454;DHT22;9356;52.202;20.950;2023-05-28T03:50:32;15.90;51.30
18454;DHT22;9356;52.202;20.950;2023-05-28T03:51:37;15.90;51.70
18454;DHT22;9356;52.202;20.950;2023-05-28T03:52:42;15.80;51.80
18454;DHT22;9356;52.202;20.950;2023-05-28T03:53:49;15.90;52.20
18454;DHT22;9356;52.202;20.950;2023-05-28T03:54:53;15.90;52.00
18454;DHT22;9356;52.202;20.950;2023-05-28T03:56:04;15.90;51.60
18454;DHT22;9356;52.202;20.950;2023-05-28T03:57:09;15.90;51.80
18454;DHT22;9356;52.202;20.950;2023-05-28T03:58:14;15.90;51.90
18454;DHT22;9356;52.202;20.950;2023-05-28T03:59:20;16.00;51.50
18454;DHT22;9356;52.202;20.950;2023-05-28T04:00:25;16.00;51.40
18454;DHT22;9356;52.202;20.950;2023-05-28T04:01:29;16.00;51.40
18454;DHT22;9356;52.202;20.950;2023-05-28T04:02:33;16.10;51.30
18454;DHT22;9356;52.202;20.950;2023-05-28T04:03:38;16.10;51.60
18454;DHT22;9356;52.202;20.950;2023-05-28T04:04:44;16.10;51.90
18454;DHT22;9356;52.202;20.950;2023-05-28T04:05:52;16.20;51.10
18454;DHT22;9356;52.202;20.950;2023-05-28T04:06:57;16.20;50.80
18454;DHT22;9356;52.202;20.950;2023-05-28T04:08:01;16.30;50.40
18454;DHT22;9356;52.202;20.950;2023-05-28T04:09:05;16.30;50.90
18454;DHT22;9356;52.202;20.950;2023-05-28T04:10:09;16.30;50.60
18454;DHT22;9356;52.202;20.950;2023-05-28T04:11:13;16.30;50.60
18454;DHT22;9356;52.202;20.950;2023-05-28T04:12:18;16.30;50.90
18454;DHT22;9356;52.202;20.950;2023-05-28T04:13:26;16.30;50.90
18454;DHT22;9356;52.202;20.950;2023-05-28T04:14:32;16.40;50.70
18454;DHT22;9356;52.202;20.950;2023-05-28T04:15:37;16.40;50.30
18454;DHT22;9356;52.202;20.950;2023-05-28T04:16:41;16.50;50.60
18454;DHT22;9356;52.202;20.950;2023-05-28T04:17:48;16.60;50.40
18454;DHT22;9356;52.202;20.950;2023-05-28T04:18:53;16.60;50.20
18454;DHT22;9356;52.202;20.950;2023-05-28T04:19:56;16.60;50.00
18454;DHT22;9356;52.202;20.950;2023-05-28T04:21:03;16.60;50.10
18454;DHT22;9356;52.202;20.950;2023-05-28T04:22:08;16.60;50.20
18454;DHT22;9356;52.202;20.950;2023-05-28T04:23:14;16.60;50.20
18454;DHT22;9356;52.202;20.950;2023-05-28T04:24:20;16.70;50.10
18454;DHT22;9356;52.202;20.950;2023-05-28T04:25:24;16.80;50.20
18454;DHT22;9356;52.202;20.950;2023-05-28T04:26:29;16.90;50.10
18454;DHT22;9356;52.202;20.950;2023-05-28T04:27:34;16.90;49.80
18454;DHT22;9356;52.202;20.950;2023-05-28T04:28:39;17.00;49.90
18454;DHT22;9356;52.202;20.950;2023-05-28T04:29:50;17.10;49.90
18454;DHT22;9356;52.202;20.950;2023-05-28T04:30:54;17.10;49.20
18454;DHT22;9356;52.202;20.950;2023-05-28T04:32:04;17.20;49.60
18454;DHT22;9356;52.202;20.950;2023-05-28T04:33:17;17.30;49.60
18454;DHT22;9356;52.202;20.950;2023-05-28T04:34:23;17.40;49.50
18454;DHT22;9356;52.202;20.950;2023-05-28T04:35:28;17.50;49.10
18454;DHT22;9356;52.202;20.950;2023-05-28T04:36:33;18.40;49.10
18454;DHT22;9356;52.202;20.950;2023-05-28T04:37:40;17.60;48.90
18454;DHT22;9356;52.202;20.950;2023-05-28T04:38:45;17.60;48.60
18454;DHT22;9356;52.202;20.950;2023-05-28T04:39:49;17.60;48.70
18454;DHT22;9356;52.202;20.950;2023-05-28T04:40:55;17.60;48.90
18454;DHT22;9356;52.202;20.950;2023-05-28T04:42:00;17.70;49.30
18454;DHT22;9356;52.202;20.950;2023-05-28T04:43:08;17.70;48.60
18454;DHT22;9356;52.202;20.950;2023-05-28T04:44:16;17.70;48.40
18454;DHT22;9356;52.202;20.950;2023-05-28T04:45:22;17.90;48.70
18454;DHT22;9356;52.202;20.950;2023-05-28T04:46:28;18.00;48.50
18454;DHT22;9356;52.202;20.950;2023-05-28T04:47:38;18.00;47.80
18454;DHT22;9356;52.202;20.950;2023-05-28T04:48:45;17.90;47.90
18454;DHT22;9356;52.202;20.950;2023-05-28T04:49:50;18.00;48.00
18454;DHT22;9356;52.202;20.950;2023-05-28T04:50:53;18.10;48.20
18454;DHT22;9356;52.202;20.950;2023-05-28T04:52:03;18.30;47.80
18454;DHT22;9356;52.202;20.950;2023-05-28T04:53:09;18.30;48.00
18454;DHT22;9356;52.202;20.950;2023-05-28T04:54:13;18.50;48.10
18454;DHT22;9356;52.202;20.950;2023-05-28T04:55:17;18.60;48.00
18454;DHT22;9356;52.202;20.950;2023-05-28T04:56:21;18.70;47.80
18454;DHT22;9356;52.202;20.950;2023-05-28T04:57:29;18.70;47.10
18454;DHT22;9356;52.202;20.950;2023-05-28T04:58:37;18.70;46.40
18454;DHT22;9356;52.202;20.950;2023-05-28T04:59:44;18.50;46.20
18454;DHT22;9356;52.202;20.950;2023-05-28T05:00:48;18.60;46.60
18454;DHT22;9356;52.202;20.950;2023-05-28T05:02:02;18.50;47.00
18454;DHT22;9356;52.202;20.950;2023-05-28T05:03:09;18.50;46.40
18454;DHT22;9356;52.202;20.950;2023-05-28T05:04:13;18.40;46.30
18454;DHT22;9356;52.202;20.950;2023-05-28T05:05:18;18.30;46.60
18454;DHT22;9356;52.202;20.950;2023-05-28T05:06:23;18.20;46.90
18454;DHT22;9356;52.202;20.950;2023-05-28T05:07:26;18.30;47.80
18454;DHT22;9356;52.202;20.950;2023-05-28T05:08:30;18.40;46.90
18454;DHT22;9356;52.202;20.950;2023-05-28T05:09:36;18.40;46.80
18454;DHT22;9356;52.202;20.950;2023-05-28T05:10:42;18.30;46.50
18454;DHT22;9356;52.202;20.950;2023-05-28T05:11:46;18.30;46.80
18454;DHT22;9356;52.202;20.950;2023-05-28T05:12:55;18.20;46.90
18454;DHT22;9356;52.202;20.950;2023-05-28T05:13:58;18.30;47.00
18454;DHT22;9356;52.202;20.950;2023-05-28T05:15:08;18.30;46.90
18454;DHT22;9356;52.202;20.950;2023-05-28T05:16:14;18.30;46.90
18454;DHT22;9356;52.202;20.950;2023-05-28T05:17:20;18.40;46.70
18454;DHT22;9356;52.202;20.950;2023-05-28T05:18:23;18.40;46.70
18454;DHT22;9356;52.202;20.950;2023-05-28T05:19:30;18.40;47.20
18454;DHT22;9356;52.202;20.950;2023-05-28T05:20:36;18.40;47.70
18454;DHT22;9356;52.202;20.950;2023-05-28T05:21:41;18.50;47.30
18454;DHT22;9356;52.202;20.950;2023-05-28T05:22:46;18.60;47.00
18454;DHT22;9356;52.202;20.950;2023-05-28T05:23:51;18.70;47.10
18454;DHT22;9356;52.202;20.950;2023-05-28T05:25:00;18.80;47.70
18454;DHT22;9356;52.202;20.950;2023-05-28T05:26:05;18.90;47.30
18454;DHT22;9356;52.202;20.950;2023-05-28T05:27:12;19.10;46.80
18454;DHT22;9356;52.202;20.950;2023-05-28T05:28:16;19.20;46.90
18454;DHT22;9356;52.202;20.950;2023-05-28T05:29:21;19.30;46.50
18454;DHT22;9356;52.202;20.950;2023-05-28T05:30:27;19.40;45.90
18454;DHT22;9356;52.202;20.950;2023-05-28T05:31:33;19.50;45.90
18454;DHT22;9356;52.202;20.950;2023-05-28T05:32:41;19.50;45.90
18454;DHT22;9356;52.202;20.950;2023-05-28T05:33:45;19.50;45.80
18454;DHT22;9356;52.202;20.950;2023-05-28T05:35:09;19.60;45.90
18454;DHT22;9356;52.202;20.950;2023-05-28T05:36:36;19.60;45.90
18454;DHT22;9356;52.202;20.950;2023-05-28T05:38:01;19.60;45.50
18454;DHT22;9356;52.202;20.950;2023-05-28T05:39:37;19.40;45.30
18454;DHT22;9356;52.202;20.950;2023-05-28T05:41:01;19.30;45.70
18454;DHT22;9356;52.202;20.950;2023-05-28T05:42:12;18.90;45.50
18454;DHT22;9356;52.202;20.950;2023-05-28T05:43:24;19.20;45.90
18454;DHT22;9356;52.202;20.950;2023-05-28T05:44:32;19.10;46.40
18454;DHT22;9356;52.202;20.950;2023-05-28T05:45:36;19.20;46.60
18454;DHT22;9356;52.202;20.950;2023-05-28T05:46:42;19.20;46.50
18454;DHT22;9356;52.202;20.950;2023-05-28T05:47:49;19.20;46.40
18454;DHT22;9356;52.202;20.950;2023-05-28T05:48:57;19.20;45.90
18454;DHT22;9356;52.202;20.950;2023-05-28T05:50:02;19.20;45.60
18454;DHT22;9356;52.202;20.950;2023-05-28T05:51:08;19.10;45.80
18454;DHT22;9356;52.202;20.950;2023-05-28T05:52:20;19.00;46.10
18454;DHT22;9356;52.202;20.950;2023-05-28T05:53:28;19.00;46.50
18454;DHT22;9356;52.202;20.950;2023-05-28T05:54:33;18.90;46.60
18454;DHT22;9356;52.202;20.950;2023-05-28T05:55:40;18.90;46.40
18454;DHT22;9356;52.202;20.950;2023-05-28T05:56:46;18.70;46.70
18454;DHT22;9356;52.202;20.950;2023-05-28T05:57:49;18.70;47.00
18454;DHT22;9356;52.202;20.950;2023-05-28T05:59:00;18.70;47.00
18454;DHT22;9356;52.202;20.950;2023-05-28T06:00:04;18.80;46.80
18454;DHT22;9356;52.202;20.950;2023-05-28T06:01:16;18.90;46.60
18454;DHT22;9356;52.202;20.950;2023-05-28T06:02:21;19.00;46.90
18454;DHT22;9356;52.202;20.950;2023-05-28T06:03:31;19.00;47.30
18454;DHT22;9356;52.202;20.950;2023-05-28T06:04:42;19.00;47.20
18454;DHT22;9356;52.202;20.950;2023-05-28T06:06:21;19.20;46.80
18454;DHT22;9356;52.202;20.950;2023-05-28T06:07:49;19.30;47.00
18454;DHT22;9356;52.202;20.950;2023-05-28T06:09:13;19.30;46.80
18454;DHT22;9356;52.202;20.950;2023-05-28T06:10:20;19.30;46.80
18454;DHT22;9356;52.202;20.950;2023-05-28T06:11:28;19.30;47.60
18454;DHT22;9356;52.202;20.950;2023-05-28T06:12:32;19.30;47.40
18454;DHT22;9356;52.202;20.950;2023-05-28T06:13:36;19.40;47.00
18454;DHT22;9356;52.202;20.950;2023-05-28T06:14:40;19.50;47.90
18454;DHT22;9356;52.202;20.950;2023-05-28T06:15:45;19.60;47.70
18454;DHT22;9356;52.202;20.950;2023-05-28T06:16:48;19.80;46.80
18454;DHT22;9356;52.202;20.950;2023-05-28T06:17:56;19.90;46.40
18454;DHT22;9356;52.202;20.950;2023-05-28T06:18:58;20.00;46.00
18454;DHT22;9356;52.202;20.950;2023-05-28T06:20:08;20.00;46.10
18454;DHT22;9356;52.202;20.950;2023-05-28T06:21:12;20.00;46.00
18454;DHT22;9356;52.202;20.950;2023-05-28T06:22:18;20.10;45.60
18454;DHT22;9356;52.202;20.950;2023-05-28T06:23:21;20.20;46.10
18454;DHT22;9356;52.202;20.950;2023-05-28T06:24:26;20.20;46.50
18454;DHT22;9356;52.202;20.950;2023-05-28T06:25:30;20.30;45.80
18454;DHT22;9356;52.202;20.950;2023-05-28T06:26:35;20.40;46.40
18454;DHT22;9356;52.202;20.950;2023-05-28T06:27:38;20.50;46.50
18454;DHT22;9356;52.202;20.950;2023-05-28T06:28:42;20.70;46.30
18454;DHT22;9356;52.202;20.950;2023-05-28T06:29:45;20.80;45.10
18454;DHT22;9356;52.202;20.950;2023-05-28T06:30:49;20.80;44.90
18454;DHT22;9356;52.202;20.950;2023-05-28T06:31:53;20.80;44.80
18454;DHT22;9356;52.202;20.950;2023-05-28T06:32:58;20.70;45.30
18454;DHT22;9356;52.202;20.950;2023-05-28T06:34:06;20.60;45.20
18454;DHT22;9356;52.202;20.950;2023-05-28T06:35:10;20.60;44.90
18454;DHT22;9356;52.202;20.950;2023-05-28T06:36:14;20.70;45.30
18454;DHT22;9356;52.202;20.950;2023-05-28T06:37:18;20.70;45.00
18454;DHT22;9356;52.202;20.950;2023-05-28T06:38:21;20.80;45.40
18454;DHT22;9356;52.202;20.950;2023-05-28T06:39:28;21.00;45.50
18454;DHT22;9356;52.202;20.950;2023-05-28T06:40:32;21.00;44.10
18454;DHT22;9356;52.202;20.950;2023-05-28T06:41:37;21.00;43.80
18454;DHT22;9356;52.202;20.950;2023-05-28T06:42:40;20.90;43.80
18454;DHT22;9356;52.202;20.950;2023-05-28T06:44:06;20.80;44.20
18454;DHT22;9356;52.202;20.950;2023-05-28T06:45:20;20.60;43.60
18454;DHT22;9356;52.202;20.950;2023-05-28T06:46:24;20.60;44.30
18454;DHT22;9356;52.202;20.950;2023-05-28T06:47:28;20.60;44.70
18454;DHT22;9356;52.202;20.950;2023-05-28T06:48:34;20.70;44.60
18454;DHT22;9356;52.202;20.950;2023-05-28T06:49:39;20.80;44.80
18454;DHT22;9356;52.202;20.950;2023-05-28T06:50:44;20.90;44.70
18454;DHT22;9356;52.202;20.950;2023-05-28T06:51:52;21.00;45.00
18454;DHT22;9356;52.202;20.950;2023-05-28T06:52:55;21.10;44.80
18454;DHT22;9356;52.202;20.950;2023-05-28T06:54:02;21.20;43.80
18454;DHT22;9356;52.202;20.950;2023-05-28T06:55:08;21.20;44.10
18454;DHT22;9356;52.202;20.950;2023-05-28T06:56:25;19.50;43.50
18454;DHT22;9356;52.202;20.950;2023-05-28T06:58:05;21.20;43.20
18454;DHT22;9356;52.202;20.950;2023-05-28T06:59:45;21.10;42.70
18454;DHT22;9356;52.202;20.950;2023-05-28T07:01:10;20.80;42.10
18454;DHT22;9356;52.202;20.950;2023-05-28T07:02:44;20.60;43.10
18454;DHT22;9356;52.202;20.950;2023-05-28T07:04:11;20.50;42.30